Time;durP1;ratioP1;P1;durP2;ratioP2;P2;SDS_P1;SDS_P2;PMS_P1;PMS_P2;Temp;Humidity;BMP_temperature;BMP_pressure;BME280_temperature;BME280_humidity;BME280_pressure;Samples;Min_cycle;Max_cycle;Signal;HPM_P1;HPM_P2
2022/04/01 00:00:54;;;;;;;1.00;0.70;;;11.80;74.30;;;;;;5030080;28;20843;-45
2022/04/01 00:03:24;;;;;;;0.90;0.70;;;11.80;74.20;;;;;;5031157;28;21005;-47
2022/04/01 00:05:52;;;;;;;1.10;1.00;;;11.80;74.30;;;;;;5030582;28;20870;-47
2022/04/01 00:08:21;;;;;;;1.07;0.90;;;11.80;74.20;;;;;;5030568;28;20498;-47
2022/04/01 00:10:49;;;;;;;0.80;0.60;;;11.80;74.30;;;;;;5034988;28;20542;-47
2022/04/01 00:13:18;;;;;;;1.30;1.00;;;11.80;74.30;;;;;;5049945;28;21024;-46
2022/04/01 00:15:46;;;;;;;1.07;0.90;;;11.80;74.40;;;;;;5043339;28;20472;-48
2022/04/01 00:18:14;;;;;;;1.40;1.30;;;11.70;74.30;;;;;;5031788;28;20471;-46
2022/04/01 00:20:44;;;;;;;1.07;0.83;;;11.70;74.30;;;;;;5032193;28;20494;-46
2022/04/01 00:23:14;;;;;;;1.00;0.90;;;11.80;74.40;;;;;;5031169;28;21040;-47
2022/04/01 00:25:42;;;;;;;1.17;0.93;;;11.70;74.30;;;;;;5029988;28;20471;-47
2022/04/01 00:28:11;;;;;;;1.17;1.07;;;11.70;74.40;;;;;;5031556;28;20425;-47
2022/04/01 00:30:40;;;;;;;1.13;0.97;;;11.70;74.40;;;;;;5030351;28;20460;-47
2022/04/01 00:33:14;;;;;;;1.40;1.00;;;11.70;74.30;;;;;;5037468;28;21001;-45
2022/04/01 00:35:45;;;;;;;0.97;0.97;;;11.70;74.40;;;;;;5037568;28;20863;-48
2022/04/01 00:38:13;;;;;;;1.40;1.30;;;11.70;74.40;;;;;;5030994;28;20456;-47
2022/04/01 00:40:42;;;;;;;1.33;1.23;;;11.70;74.40;;;;;;5038367;28;20459;-47
2022/04/01 00:43:11;;;;;;;1.13;1.03;;;11.70;74.40;;;;;;5050843;28;20818;-46
2022/04/01 00:45:40;;;;;;;1.10;0.90;;;11.70;74.40;;;;;;5050011;28;21009;-46
2022/04/01 00:48:08;;;;;;;1.60;0.93;;;11.70;74.50;;;;;;5035332;28;20844;-46
2022/04/01 00:50:37;;;;;;;0.90;0.90;;;11.70;74.40;;;;;;5048632;28;20457;-45
2022/04/01 00:53:07;;;;;;;1.40;1.00;;;11.60;74.40;;;;;;5048179;28;21222;-47
2022/04/01 00:55:36;;;;;;;0.90;0.83;;;11.60;74.40;;;;;;5049152;28;20474;-45
2022/04/01 00:58:05;;;;;;;0.90;0.90;;;11.70;74.40;;;;;;5050907;28;20465;-47
2022/04/01 01:00:35;;;;;;;0.90;0.90;;;11.70;74.60;;;;;;5048022;28;20471;-48
2022/04/01 01:03:04;;;;;;;1.00;0.90;;;11.60;74.40;;;;;;5029485;28;20827;-45
2022/04/01 01:05:32;;;;;;;1.30;1.20;;;11.70;74.50;;;;;;5029793;28;20471;-48
2022/04/01 01:08:05;;;;;;;1.37;1.00;;;11.60;74.50;;;;;;5031819;28;21006;-48
2022/04/01 01:10:35;;;;;;;1.60;1.50;;;11.60;74.50;;;;;;5029851;28;20456;-46
2022/04/01 01:13:03;;;;;;;1.20;1.10;;;11.60;74.40;;;;;;5062130;28;20872;-48
2022/04/01 01:15:31;;;;;;;1.20;1.10;;;11.60;74.50;;;;;;5028353;28;20563;-47
2022/04/01 01:17:59;;;;;;;1.00;1.00;;;11.60;74.50;;;;;;5030081;28;20460;-45
2022/04/01 01:20:27;;;;;;;1.33;1.23;;;11.60;74.50;;;;;;5028345;28;20498;-45
2022/04/01 01:22:57;;;;;;;1.57;1.47;;;11.60;74.60;;;;;;5035365;28;20448;-47
2022/04/01 01:25:27;;;;;;;1.33;1.00;;;11.60;74.40;;;;;;5030637;28;20878;-45
2022/04/01 01:27:55;;;;;;;1.00;0.90;;;11.60;74.50;;;;;;5029056;28;20443;-46
2022/04/01 01:30:24;;;;;;;1.00;0.90;;;11.60;74.40;;;;;;5047769;28;20486;-45
2022/04/01 01:32:52;;;;;;;1.20;1.10;;;11.60;74.60;;;;;;5029693;28;20454;-46
2022/04/01 01:35:21;;;;;;;1.70;1.13;;;11.60;74.50;;;;;;5028332;28;20525;-45
2022/04/01 01:37:49;;;;;;;1.10;1.00;;;11.60;74.60;;;;;;5030920;28;20496;-46
2022/04/01 01:40:17;;;;;;;0.90;0.83;;;11.50;74.60;;;;;;5028451;28;20458;-45
2022/04/01 01:42:46;;;;;;;1.47;1.10;;;11.50;74.50;;;;;;5030638;28;20430;-47
2022/04/01 01:45:15;;;;;;;1.10;0.97;;;11.50;74.50;;;;;;5048390;28;20439;-49
2022/04/01 01:47:43;;;;;;;1.10;0.80;;;11.50;74.60;;;;;;5037136;28;20451;-47
2022/04/01 01:55:53;;;;;;;1.20;1.10;;;11.50;74.60;;;;;;5027786;28;20970;-47
2022/04/01 01:58:22;;;;;;;1.47;1.00;;;11.50;74.60;;;;;;5028753;28;20476;-47
2022/04/01 02:00:53;;;;;;;1.30;1.20;;;11.50;74.60;;;;;;5027933;28;20472;-47
2022/04/01 02:03:21;;;;;;;1.23;1.13;;;11.50;74.60;;;;;;5029770;28;20459;-46
2022/04/01 02:05:50;;;;;;;1.37;1.27;;;11.50;74.60;;;;;;5027650;28;20490;-49
2022/04/01 02:08:18;;;;;;;1.50;1.10;;;11.50;74.70;;;;;;5028925;28;20935;-47
2022/04/01 02:10:46;;;;;;;1.00;0.90;;;11.50;74.70;;;;;;5029635;28;20452;-47
2022/04/01 02:13:14;;;;;;;1.30;0.97;;;11.50;74.70;;;;;;5028246;28;20459;-46
2022/04/01 02:15:45;;;;;;;1.23;1.13;;;11.50;74.70;;;;;;5027907;28;20640;-47
2022/04/01 02:18:13;;;;;;;1.10;1.00;;;11.50;74.70;;;;;;5038267;28;20447;-47
2022/04/01 02:20:42;;;;;;;1.33;1.10;;;11.50;74.70;;;;;;5032889;28;20883;-48
2022/04/01 02:23:11;;;;;;;1.07;0.97;;;11.50;74.70;;;;;;5039562;28;20480;-47
2022/04/01 02:25:40;;;;;;;1.00;0.90;;;11.50;74.80;;;;;;5030868;28;20978;-47
2022/04/01 02:28:08;;;;;;;1.37;1.23;;;11.50;74.70;;;;;;5032466;28;20448;-46
2022/04/01 02:30:37;;;;;;;1.10;1.00;;;11.40;74.50;;;;;;5031799;28;20463;-47
2022/04/01 02:33:25;;;;;;;1.50;1.33;;;11.40;74.70;;;;;;5032371;28;20467;-48
2022/04/01 02:35:58;;;;;;;1.53;1.07;;;11.40;74.70;;;;;;5031537;28;20486;-48
2022/04/01 02:38:29;;;;;;;1.10;1.00;;;11.40;74.70;;;;;;5039072;28;20447;-47
2022/04/01 02:40:59;;;;;;;1.90;1.60;;;11.40;74.70;;;;;;5044989;28;20854;-48
2022/04/01 02:43:32;;;;;;;2.10;2.00;;;;;;;;;;5051660;28;20458;-45
2022/04/01 02:46:00;;;;;;;2.33;1.70;;;11.40;73.50;;;;;;5029754;28;20610;-45
2022/04/01 02:48:30;;;;;;;1.93;1.83;;;11.40;74.30;;;;;;5032533;28;20455;-46
2022/04/01 02:51:24;;;;;;;2.67;2.47;;;11.40;74.40;;;;;;5039349;28;20471;-47
2022/04/01 02:53:55;;;;;;;2.53;2.33;;;11.40;74.20;;;;;;5031442;28;20468;-47
2022/04/01 02:56:23;;;;;;;2.40;2.20;;;11.40;74.20;;;;;;5032375;28;20471;-47
2022/04/01 02:58:52;;;;;;;3.03;2.73;;;11.30;73.80;;;;;;5031865;28;20460;-46
2022/04/01 03:01:22;;;;;;;3.47;2.40;;;11.30;74.80;;;;;;5031989;28;21007;-46
2022/04/01 03:03:52;;;;;;;2.10;2.00;;;11.30;74.00;;;;;;5041220;28;20954;-46
2022/04/01 03:06:24;;;;;;;2.80;2.57;;;11.30;74.00;;;;;;5048464;28;20513;-48
2022/04/01 03:08:52;;;;;;;2.53;2.33;;;11.20;73.80;;;;;;5049703;28;20458;-46
2022/04/01 03:11:20;;;;;;;2.60;2.40;;;11.30;74.00;;;;;;5051506;28;20501;-47
2022/04/01 03:13:49;;;;;;;2.40;2.20;;;11.20;73.40;;;;;;5033168;28;20463;-47
2022/04/01 03:16:48;;;;;;;2.03;1.83;;;11.20;73.80;;;;;;5037385;28;20502;-46
2022/04/01 03:19:18;;;;;;;4.17;3.77;;;11.20;73.60;;;;;;5063374;28;20468;-46
2022/04/01 03:21:48;;;;;;;2.37;2.17;;;11.10;73.30;;;;;;5064447;28;21052;-48
2022/04/01 03:24:17;;;;;;;3.03;2.70;;;11.10;73.30;;;;;;5030398;28;20813;-44
2022/04/01 03:26:45;;;;;;;2.30;2.10;;;11.10;73.30;;;;;;5030355;28;20899;-45
2022/04/01 03:29:13;;;;;;;3.70;3.40;;;11.10;73.90;;;;;;5032163;28;20551;-46
2022/04/01 03:31:42;;;;;;;2.97;2.67;;;11.10;73.40;;;;;;5038908;28;20521;-46
2022/04/01 03:34:10;;;;;;;2.90;2.43;;;11.10;73.70;;;;;;5034594;28;20842;-47
2022/04/01 03:36:39;;;;;;;2.63;2.30;;;11.10;73.70;;;;;;5051678;28;20470;-48
2022/04/01 03:39:08;;;;;;;2.57;2.37;;;;;;;;;;5038825;28;20883;-45
2022/04/01 03:41:45;;;;;;;2.23;2.03;;;11.10;72.50;;;;;;5030331;28;20474;-46
2022/04/01 03:44:14;;;;;;;2.60;2.37;;;11.00;73.80;;;;;;5030610;28;20454;-48
2022/04/01 03:46:50;;;;;;;2.53;2.33;;;11.00;73.50;;;;;;5034460;28;20553;-47
2022/04/01 03:49:23;;;;;;;2.43;2.23;;;11.00;73.60;;;;;;5041880;28;20424;-47
2022/04/01 03:51:56;;;;;;;3.17;2.87;;;11.00;73.60;;;;;;5030763;28;20877;-48
2022/04/01 03:54:26;;;;;;;4.30;2.70;;;11.00;73.20;;;;;;5042147;28;20522;-46
2022/04/01 03:57:03;;;;;;;1.87;1.50;;;11.00;73.30;;;;;;5031681;28;20841;-45
2022/04/01 03:59:44;;;;;;;2.30;1.93;;;11.00;73.90;;;;;;5031735;28;20467;-47
2022/04/01 04:02:42;;;;;;;2.17;1.97;;;11.00;73.20;;;;;;5032007;28;20456;-47
2022/04/01 04:05:11;;;;;;;2.90;2.57;;;11.00;73.60;;;;;;5029208;28;20440;-46
2022/04/01 04:07:42;;;;;;;2.20;2.03;;;10.90;73.20;;;;;;5032036;28;20462;-48
2022/04/01 04:10:14;;;;;;;2.63;2.43;;;10.90;73.50;;;;;;5029469;28;20796;-47
2022/04/01 04:13:06;;;;;;;2.70;2.30;;;10.90;73.40;;;;;;5031109;28;20467;-48
2022/04/01 04:15:41;;;;;;;3.50;2.13;;;10.90;73.50;;;;;;5028941;28;20846;-47
2022/04/01 04:18:17;;;;;;;2.70;2.50;;;10.90;73.50;;;;;;5045080;28;20927;-48
2022/04/01 04:20:55;;;;;;;2.90;2.33;;;10.90;73.20;;;;;;5036794;28;20962;-47
2022/04/01 04:23:35;;;;;;;2.83;2.53;;;10.90;73.30;;;;;;5030327;28;20495;-46
2022/04/01 04:26:11;;;;;;;2.67;2.47;;;10.90;72.90;;;;;;5029913;28;20530;-47
2022/04/01 04:28:49;;;;;;;3.23;3.00;;;10.90;73.10;;;;;;5030382;28;20471;-46
2022/04/01 04:31:38;;;;;;;2.70;2.50;;;10.90;73.00;;;;;;5031102;28;21007;-46
2022/04/01 04:34:15;;;;;;;2.67;2.47;;;10.80;74.00;;;;;;5028911;28;20455;-46
2022/04/01 04:36:43;;;;;;;2.30;2.10;;;10.80;73.00;;;;;;5049047;28;20463;-47
2022/04/01 04:39:30;;;;;;;2.43;2.33;;;10.80;73.30;;;;;;5049302;28;20856;-47
2022/04/01 04:41:58;;;;;;;3.47;2.70;;;10.80;72.60;;;;;;5050641;28;20464;-46
2022/04/01 04:44:29;;;;;;;3.23;2.93;;;10.70;72.10;;;;;;5031266;28;20463;-46
2022/04/01 04:46:59;;;;;;;2.40;2.20;;;10.70;72.80;;;;;;5057072;28;20824;-47
2022/04/01 04:49:30;;;;;;;3.00;2.80;;;10.70;73.10;;;;;;5049812;28;20499;-46
2022/04/01 04:52:01;;;;;;;2.87;2.67;;;10.70;72.30;;;;;;5048018;28;20467;-47
2022/04/01 04:54:40;;;;;;;5.53;3.10;;;10.70;73.10;;;;;;5030324;28;20867;-47
2022/04/01 04:57:23;;;;;;;2.77;2.57;;;10.70;73.10;;;;;;5037315;28;20541;-47
2022/04/01 04:59:52;;;;;;;3.40;3.10;;;10.70;73.30;;;;;;5048002;28;20446;-46
2022/04/01 05:02:41;;;;;;;2.93;2.73;;;10.70;72.30;;;;;;5029677;28;20548;-46
2022/04/01 05:05:21;;;;;;;2.27;2.07;;;10.70;72.40;;;;;;5029152;28;20482;-46
2022/04/01 05:08:17;;;;;;;2.50;2.27;;;10.60;72.60;;;;;;5038164;28;20972;-47
2022/04/01 05:11:29;;;;;;;2.83;2.53;;;10.60;73.00;;;;;;5034780;28;21050;-46
2022/04/01 05:14:01;;;;;;;2.57;2.37;;;10.60;72.40;;;;;;5028336;28;20466;-46
2022/04/01 05:16:48;;;;;;;3.47;3.15;;;10.60;72.60;;;;;;5028049;28;20905;-46
2022/04/01 05:19:25;;;;;;;2.70;2.50;;;10.50;71.70;;;;;;5029619;28;20295;-48
2022/04/01 05:22:01;;;;;;;2.43;2.27;;;10.50;72.70;;;;;;5028935;28;20471;-47
2022/04/01 05:24:39;;;;;;;4.53;3.00;;;10.50;72.50;;;;;;5028936;28;21067;-48
2022/04/01 05:27:18;;;;;;;3.03;2.77;;;10.50;72.20;;;;;;5030863;28;20534;-47
2022/04/01 05:30:10;;;;;;;2.40;2.20;;;10.40;72.50;;;;;;5029151;28;20761;-45
2022/04/01 05:32:40;;;;;;;2.70;2.50;;;10.50;73.00;;;;;;5029482;28;20440;-46
2022/04/01 05:35:09;;;;;;;2.90;2.23;;;10.50;73.00;;;;;;5029192;28;20432;-48
2022/04/01 05:37:39;;;;;;;3.90;3.00;;;10.50;73.30;;;;;;5028842;28;20493;-44
2022/04/01 05:40:12;;;;;;;4.10;2.73;;;10.50;71.80;;;;;;5038467;28;20473;-47
2022/04/01 05:42:46;;;;;;;2.57;2.37;;;10.50;72.80;;;;;;5045851;28;20449;-47
2022/04/01 05:45:41;;;;;;;2.60;2.40;;;10.50;72.50;;;;;;5037940;28;20845;-46
2022/04/01 05:48:13;;;;;;;2.53;2.33;;;10.50;73.10;;;;;;5029585;28;20432;-45
2022/04/01 05:50:44;;;;;;;2.70;2.50;;;10.50;72.60;;;;;;5049591;28;20494;-46
2022/04/01 05:53:14;;;;;;;2.43;2.23;;;10.50;72.10;;;;;;5049531;28;20803;-47
2022/04/01 05:55:51;;;;;;;2.80;2.57;;;10.50;73.00;;;;;;5040191;28;20501;-46
2022/04/01 05:58:20;;;;;;;2.90;2.70;;;10.60;73.10;;;;;;5033632;28;20463;-45
2022/04/01 06:00:58;;;;;;;3.00;2.60;;;10.60;73.10;;;;;;5032181;28;20491;-47
2022/04/01 06:04:07;;;;;;;3.27;2.70;;;10.60;72.60;;;;;;5032982;28;21016;-46
2022/04/01 06:06:41;;;;;;;2.30;2.10;;;10.60;72.60;;;;;;5032424;28;20478;-48
2022/04/01 06:09:31;;;;;;;2.60;2.40;;;10.50;72.70;;;;;;5049180;28;20869;-47
2022/04/01 06:12:19;;;;;;;2.57;2.37;;;10.50;72.80;;;;;;5053159;28;20466;-47
2022/04/01 06:15:19;;;;;;;2.63;2.43;;;10.50;71.50;;;;;;5051315;28;20450;-47
2022/04/01 06:18:23;;;;;;;2.53;2.33;;;10.50;72.10;;;;;;5033164;28;20865;-47
2022/04/01 06:20:55;;;;;;;2.27;2.17;;;10.50;72.60;;;;;;5065647;28;20471;-46
2022/04/01 06:23:36;;;;;;;2.80;2.60;;;10.50;72.50;;;;;;5038592;28;20528;-47
2022/04/01 06:26:11;;;;;;;2.37;2.17;;;10.40;71.60;;;;;;5031810;28;20467;-48
2022/04/01 06:28:49;;;;;;;3.43;3.13;;;10.40;71.70;;;;;;5031971;28;20522;-46
2022/04/01 06:31:24;;;;;;;3.07;2.77;;;10.40;71.50;;;;;;5032003;28;20475;-46
2022/04/01 06:34:03;;;;;;;2.90;2.70;;;10.40;72.10;;;;;;5037412;28;20791;-45
2022/04/01 06:36:52;;;;;;;2.80;2.60;;;10.40;72.50;;;;;;5053380;28;20488;-47
2022/04/01 06:39:28;;;;;;;2.63;2.43;;;10.40;72.10;;;;;;5042377;28;20645;-48
2022/04/01 06:41:58;;;;;;;2.40;2.20;;;10.40;72.20;;;;;;5063107;28;20467;-50
2022/04/01 06:45:03;;;;;;;2.93;2.47;;;10.40;72.40;;;;;;5038861;28;20543;-47
2022/04/01 06:48:05;;;;;;;2.63;2.20;;;10.40;71.90;;;;;;5052425;28;20461;-49
2022/04/01 06:50:53;;;;;;;2.30;2.20;;;10.30;72.10;;;;;;5065180;28;20535;-47
2022/04/01 06:53:47;;;;;;;3.30;2.67;;;10.40;71.50;;;;;;5045088;28;20469;-48
2022/04/01 06:56:36;;;;;;;2.67;2.47;;;10.40;71.80;;;;;;5038883;28;20459;-47
2022/04/01 06:59:05;;;;;;;2.37;1.77;;;10.30;72.00;;;;;;5065135;28;20476;-48
2022/04/01 07:01:34;;;;;;;2.93;2.47;;;10.30;72.60;;;;;;5033550;28;20478;-47
2022/04/01 07:04:04;;;;;;;2.20;2.07;;;10.40;72.10;;;;;;5035974;28;20466;-46
2022/04/01 07:06:36;;;;;;;2.70;2.50;;;10.30;72.40;;;;;;5032580;28;20470;-46
2022/04/01 07:09:05;;;;;;;2.70;2.50;;;10.30;72.20;;;;;;5032258;28;20447;-48
2022/04/01 07:11:34;;;;;;;2.47;2.23;;;10.40;72.30;;;;;;5038622;28;20483;-46
2022/04/01 07:14:02;;;;;;;2.53;2.33;;;10.30;72.40;;;;;;5039671;28;20443;-47
2022/04/01 07:16:31;;;;;;;2.43;2.23;;;10.40;72.50;;;;;;5051136;28;20475;-47
2022/04/01 07:19:01;;;;;;;2.93;2.30;;;10.40;72.40;;;;;;5052310;28;20806;-47
2022/04/01 07:21:31;;;;;;;3.07;2.83;;;10.40;72.40;;;;;;5052652;28;20482;-47
2022/04/01 07:24:02;;;;;;;2.90;2.70;;;10.30;71.80;;;;;;5035136;28;21053;-46
2022/04/01 07:26:32;;;;;;;2.17;2.03;;;10.40;71.60;;;;;;5032406;28;20470;-45
2022/04/01 07:29:01;;;;;;;2.30;2.17;;;10.30;71.70;;;;;;5032783;28;20424;-47
2022/04/01 07:34:40;;;;;;;2.97;2.33;;;10.30;71.70;;;;;;5032821;28;20450;-45
2022/04/01 07:37:11;;;;;;;2.50;2.30;;;10.30;72.10;;;;;;5032492;28;20452;-49
2022/04/01 07:39:40;;;;;;;2.77;2.53;;;10.30;72.10;;;;;;5032990;28;20408;-48
2022/04/01 07:42:09;;;;;;;2.83;2.63;;;10.30;71.20;;;;;;5033362;28;20553;-48
2022/04/01 07:44:37;;;;;;;2.90;2.63;;;10.20;71.70;;;;;;5052194;28;20459;-47
2022/04/01 07:47:09;;;;;;;2.30;2.10;;;10.20;71.60;;;;;;5049984;28;21066;-48
2022/04/01 07:49:37;;;;;;;2.13;1.92;;;10.20;72.30;;;;;;5033010;28;20899;-47
2022/04/01 07:52:23;;;;;;;2.60;1.90;;;10.20;72.00;;;;;;5042866;28;20231;-47
2022/04/01 07:54:53;;;;;;;2.27;2.07;;;10.20;72.30;;;;;;5032606;28;20452;-46
2022/04/01 07:57:24;;;;;;;2.30;2.20;;;10.20;72.10;;;;;;5031834;28;20489;-47
2022/04/01 07:59:53;;;;;;;1.80;1.70;;;10.20;71.60;;;;;;5031623;28;20474;-49
2022/04/01 08:02:21;;;;;;;2.57;2.37;;;10.20;72.00;;;;;;5031857;28;20227;-47
2022/04/01 08:04:49;;;;;;;2.70;2.17;;;10.20;71.80;;;;;;5051506;28;20965;-47
2022/04/01 08:07:18;;;;;;;2.60;1.97;;;10.20;71.80;;;;;;5037571;28;21074;-49
2022/04/01 08:09:49;;;;;;;2.90;2.70;;;10.20;72.80;;;;;;5048987;28;20833;-45
2022/04/01 08:12:18;;;;;;;2.50;2.30;;;10.10;71.00;;;;;;5035679;28;20460;-48
2022/04/01 08:14:46;;;;;;;2.83;2.63;;;10.10;71.10;;;;;;5031385;28;20448;-48
2022/04/01 08:17:15;;;;;;;3.53;2.90;;;10.10;71.70;;;;;;5034841;28;20479;-47
2022/04/01 08:19:44;;;;;;;2.90;2.07;;;10.10;72.10;;;;;;5031532;28;20952;-47
2022/04/01 08:22:13;;;;;;;2.67;2.47;;;10.10;72.20;;;;;;5041820;28;20467;-47
2022/04/01 08:24:41;;;;;;;2.00;1.83;;;10.10;72.40;;;;;;5031180;28;20444;-47
2022/04/01 08:27:11;;;;;;;2.83;1.90;;;10.20;72.60;;;;;;5043337;28;20471;-48
2022/04/01 08:29:39;;;;;;;3.37;2.47;;;10.20;72.50;;;;;;5034377;28;20951;-45
2022/04/01 08:32:08;;;;;;;3.33;2.67;;;10.20;72.30;;;;;;5036719;28;20543;-47
2022/04/01 08:34:37;;;;;;;2.53;2.33;;;10.20;72.20;;;;;;5051081;28;20826;-48
2022/04/01 08:37:07;;;;;;;2.60;2.10;;;10.30;71.70;;;;;;5048465;28;20900;-47
2022/04/01 08:39:36;;;;;;;2.70;2.50;;;10.20;71.90;;;;;;5049363;28;20426;-47
2022/04/01 08:42:05;;;;;;;1.87;1.77;;;10.20;71.50;;;;;;5039260;28;20212;-46
2022/04/01 08:44:37;;;;;;;2.43;2.13;;;10.20;72.20;;;;;;5045253;28;20455;-47
2022/04/01 08:47:05;;;;;;;1.70;1.60;;;10.20;72.30;;;;;;5048229;28;20479;-49
2022/04/01 08:49:33;;;;;;;2.60;1.80;;;10.20;72.20;;;;;;5051046;28;20197;-44
2022/04/01 08:52:03;;;;;;;2.07;1.97;;;10.30;72.50;;;;;;5050723;28;20451;-48
2022/04/01 08:54:33;;;;;;;2.00;1.80;;;10.30;72.60;;;;;;5030383;28;21020;-47
2022/04/01 08:57:02;;;;;;;2.43;2.07;;;10.30;72.40;;;;;;5030898;28;20644;-47
2022/04/01 08:59:32;;;;;;;3.03;1.80;;;10.20;72.40;;;;;;5034997;28;20932;-47
2022/04/01 09:02:06;;;;;;;2.33;2.13;;;10.30;72.60;;;;;;5048253;28;20490;-46
2022/04/01 09:04:36;;;;;;;1.80;1.70;;;10.20;71.50;;;;;;5035447;28;21003;-47
2022/04/01 09:07:11;;;;;;;3.30;2.70;;;10.20;72.40;;;;;;5047417;28;20474;-47
2022/04/01 09:09:40;;;;;;;2.10;1.97;;;10.20;72.40;;;;;;5036328;28;20454;-48
2022/04/01 09:12:11;;;;;;;2.33;2.13;;;10.20;72.20;;;;;;5029949;28;20467;-45
2022/04/01 09:14:40;;;;;;;1.93;1.83;;;10.20;72.40;;;;;;5028274;28;20451;-46
2022/04/01 09:17:12;;;;;;;2.43;2.23;;;10.20;72.20;;;;;;5035285;28;20900;-48
2022/04/01 09:19:48;;;;;;;2.03;1.83;;;10.20;71.80;;;;;;5035845;28;20451;-46
2022/04/01 09:22:18;;;;;;;2.10;1.90;;;10.20;72.10;;;;;;5028356;28;20475;-48
2022/04/01 09:24:59;;;;;;;2.80;2.60;;;10.20;71.50;;;;;;5030083;28;20974;-48
2022/04/01 09:27:52;;;;;;;2.70;2.33;;;10.20;71.50;;;;;;5025836;28;20475;-49
2022/04/01 09:30:27;;;;;;;1.97;1.87;;;10.10;72.30;;;;;;5020711;28;20513;-49
2022/04/01 09:32:59;;;;;;;2.45;2.25;;;10.10;71.60;;;;;;5029529;28;20458;-46
2022/04/01 09:35:29;;;;;;;2.43;2.23;;;10.10;71.60;;;;;;5028366;28;20221;-46
2022/04/01 09:38:01;;;;;;;2.73;2.50;;;10.10;71.70;;;;;;5027383;28;20450;-48
2022/04/01 09:40:31;;;;;;;2.65;2.45;;;10.00;71.80;;;;;;5034352;28;20654;-46
2022/04/01 09:43:08;;;;;;;2.50;2.30;;;10.10;72.10;;;;;;5050003;28;20220;-48
2022/04/01 09:45:37;;;;;;;3.03;2.72;;;10.00;71.70;;;;;;5029603;28;20477;-47
2022/04/01 09:48:09;;;;;;;2.60;2.40;;;10.00;71.80;;;;;;5029462;28;20196;-49
2022/04/01 09:50:40;;;;;;;3.50;2.97;;;10.00;72.10;;;;;;5040098;28;20468;-48
2022/04/01 09:53:10;;;;;;;2.83;2.57;;;10.10;72.10;;;;;;5035049;28;20472;-47
2022/04/01 09:55:40;;;;;;;3.03;2.83;;;10.00;71.90;;;;;;5028208;28;20557;-47
2022/04/01 09:58:09;;;;;;;3.20;2.90;;;10.00;72.00;;;;;;5044401;28;20560;-47
2022/04/01 10:00:39;;;;;;;2.60;2.40;;;10.00;72.20;;;;;;5041051;28;20455;-46
2022/04/01 10:03:12;;;;;;;3.30;3.10;;;10.00;72.20;;;;;;5029448;28;20217;-46
2022/04/01 10:05:45;;;;;;;2.67;2.47;;;10.00;71.10;;;;;;5044440;28;20486;-47
2022/04/01 10:08:14;;;;;;;3.57;3.27;;;10.00;71.90;;;;;;5033397;28;20483;-48
2022/04/01 10:10:45;;;;;;;3.33;3.03;;;10.00;71.50;;;;;;5029390;28;20828;-49
2022/04/01 10:13:19;;;;;;;2.97;2.70;;;10.00;71.30;;;;;;5030242;28;20267;-47
2022/04/01 10:15:49;;;;;;;3.30;3.00;;;9.90;72.60;;;;;;5030324;28;20477;-47
2022/04/01 10:18:47;;;;;;;2.73;2.53;;;9.90;72.40;;;;;;5036695;28;20455;-48
2022/04/01 10:21:19;;;;;;;5.53;2.37;;;9.90;72.60;;;;;;5028781;28;20843;-47
2022/04/01 10:23:55;;;;;;;3.43;3.03;;;9.90;72.70;;;;;;5030430;28;20757;-46
2022/04/01 10:26:24;;;;;;;3.30;2.63;;;9.90;72.00;;;;;;5047490;28;20466;-48
2022/04/01 10:28:52;;;;;;;3.13;2.83;;;9.90;72.70;;;;;;5049705;28;20849;-47
2022/04/01 10:31:24;;;;;;;2.60;2.40;;;9.90;72.80;;;;;;5038408;28;20510;-47
2022/04/01 10:34:14;;;;;;;2.50;2.30;;;9.90;73.20;;;;;;5029045;28;20271;-47
2022/04/01 10:36:54;;;;;;;3.00;2.80;;;9.90;73.10;;;;;;5029550;28;20467;-46
2022/04/01 10:39:24;;;;;;;3.60;3.30;;;9.90;72.80;;;;;;5041483;28;20275;-46
2022/04/01 10:42:14;;;;;;;2.72;2.53;;;9.90;71.70;;;;;;5035232;28;20240;-47
2022/04/01 10:44:47;;;;;;;3.10;2.83;;;9.90;72.00;;;;;;5043005;28;20214;-47
2022/04/01 10:47:22;;;;;;;2.72;2.50;;;9.90;72.40;;;;;;5036075;28;20525;-48
2022/04/01 10:52:38;;;;;;;2.75;2.55;;;9.90;71.60;;;;;;5030843;28;20209;-47
2022/04/01 10:55:10;;;;;;;2.97;2.78;;;9.80;72.10;;;;;;5031341;28;20197;-48
2022/04/01 10:57:41;;;;;;;3.40;3.10;;;9.80;71.20;;;;;;5051590;28;20203;-47
2022/04/01 11:00:14;;;;;;;2.92;2.72;;;9.80;72.20;;;;;;5032986;28;20698;-47
2022/04/01 11:02:44;;;;;;;2.60;2.40;;;9.80;72.60;;;;;;5046598;28;20185;-48
2022/04/01 11:05:27;;;;;;;3.20;3.00;;;9.80;72.30;;;;;;5039158;28;20222;-47
2022/04/01 11:08:15;;;;;;;2.50;2.27;;;9.80;72.80;;;;;;5032030;28;20199;-46
2022/04/01 11:11:04;;;;;;;2.83;2.63;;;9.80;72.60;;;;;;5032779;28;20979;-47
2022/04/01 11:13:32;;;;;;;3.75;3.42;;;9.80;72.60;;;;;;5032366;28;20207;-45
2022/04/01 11:16:14;;;;;;;3.93;2.80;;;9.80;71.50;;;;;;5040671;28;20521;-47
2022/04/01 11:19:11;;;;;;;2.45;2.25;;;9.80;72.40;;;;;;5040055;28;20450;-47
2022/04/01 11:21:42;;;;;;;3.40;3.10;;;9.80;71.70;;;;;;5044248;28;20221;-46
2022/04/01 11:24:31;;;;;;;3.33;3.03;;;9.70;71.80;;;;;;5029932;28;20216;-47
2022/04/01 11:27:07;;;;;;;3.28;3.00;;;9.80;72.00;;;;;;5032537;28;20307;-47
2022/04/01 11:29:35;;;;;;;3.30;3.00;;;9.70;72.00;;;;;;5043062;28;20200;-48
2022/04/01 11:32:08;;;;;;;3.30;3.10;;;9.70;72.10;;;;;;5038666;28;20472;-47
2022/04/01 11:34:55;;;;;;;4.25;3.90;;;9.70;71.80;;;;;;5038231;28;20755;-47
2022/04/01 11:37:26;;;;;;;4.18;3.88;;;9.70;68.90;;;;;;5036907;28;20250;-47
2022/04/01 11:40:07;;;;;;;4.53;4.13;;;9.60;68.20;;;;;;5029477;28;20212;-47
2022/04/01 11:42:48;;;;;;;4.25;3.85;;;9.70;69.20;;;;;;5037811;28;20284;-45
2022/04/01 11:45:16;;;;;;;4.32;3.03;;;9.60;68.90;;;;;;5039060;28;20221;-46
2022/04/01 11:47:44;;;;;;;6.07;4.68;;;9.60;69.40;;;;;;5039921;28;20202;-44
2022/04/01 11:50:15;;;;;;;4.60;4.20;;;9.50;65.20;;;;;;5039261;28;20193;-47
2022/04/01 11:52:47;;;;;;;4.57;4.13;;;9.50;66.50;;;;;;5040446;28;20540;-47
2022/04/01 11:55:18;;;;;;;4.20;3.80;;;9.50;67.50;;;;;;5030750;28;20222;-47
2022/04/01 11:57:48;;;;;;;4.85;4.43;;;9.50;67.50;;;;;;5026397;28;20481;-48
2022/04/01 12:00:19;;;;;;;4.57;4.15;;;9.60;67.90;;;;;;5036839;28;20203;-47
2022/04/01 12:02:49;;;;;;;4.55;4.15;;;9.50;67.60;;;;;;5032058;28;20218;-46
2022/04/01 12:05:17;;;;;;;4.28;3.88;;;9.50;68.70;;;;;;5047380;28;20691;-47
2022/04/01 12:10:42;;;;;;;4.95;4.55;;;9.50;69.60;;;;;;5051855;28;20232;-45
2022/04/01 12:13:11;;;;;;;5.97;3.75;;;9.60;69.00;;;;;;5044619;28;20210;-48
2022/04/01 12:15:42;;;;;;;5.22;4.30;;;9.60;69.70;;;;;;5036738;28;20709;-47
2022/04/01 12:18:12;;;;;;;3.70;3.40;;;9.60;69.10;;;;;;5031893;28;20218;-50
2022/04/01 12:20:41;;;;;;;4.47;3.95;;;9.50;69.80;;;;;;5050965;28;20217;-47
2022/04/01 12:23:18;;;;;;;3.90;3.50;;;9.60;69.60;;;;;;5050133;28;20209;-47
2022/04/01 12:25:49;;;;;;;3.42;3.13;;;9.60;69.50;;;;;;5045490;28;20223;-47
2022/04/01 12:28:19;;;;;;;4.75;4.10;;;9.50;68.90;;;;;;5051632;28;20661;-46
2022/04/01 12:30:50;;;;;;;4.82;4.28;;;9.50;69.10;;;;;;5030450;28;20217;-47
2022/04/01 12:33:20;;;;;;;3.50;3.20;;;9.50;69.30;;;;;;5034503;28;20705;-45
2022/04/01 12:36:00;;;;;;;5.18;3.45;;;9.50;69.40;;;;;;5034251;28;20300;-47
2022/04/01 12:38:32;;;;;;;3.25;3.05;;;9.50;68.90;;;;;;5038905;28;20199;-45
2022/04/01 12:41:02;;;;;;;20.83;5.68;;;9.50;69.90;;;;;;5048532;28;20218;-47
2022/04/01 12:43:37;;;;;;;3.35;3.05;;;9.50;70.30;;;;;;5051124;28;20642;-47
2022/04/01 12:46:10;;;;;;;4.18;3.78;;;9.50;70.30;;;;;;5029423;28;20239;-46
2022/04/01 12:48:48;;;;;;;4.18;3.53;;;9.50;69.50;;;;;;5030592;28;20572;-46
2022/04/01 12:51:24;;;;;;;4.40;3.97;;;9.50;69.60;;;;;;5036714;28;20587;-46
2022/04/01 12:54:01;;;;;;;4.03;3.03;;;9.50;69.70;;;;;;5034460;28;20258;-48
2022/04/01 12:56:33;;;;;;;4.32;3.47;;;9.50;68.90;;;;;;5030662;28;20490;-48
2022/04/01 12:59:05;;;;;;;3.97;3.50;;;9.50;68.90;;;;;;5030806;28;20204;-49
2022/04/01 13:01:36;;;;;;;4.90;3.17;;;9.50;69.60;;;;;;5029933;28;20222;-48
2022/04/01 13:04:06;;;;;;;4.05;3.75;;;9.40;69.50;;;;;;5030058;28;20631;-47
2022/04/01 13:06:34;;;;;;;4.47;3.38;;;9.50;70.30;;;;;;5028414;28;20217;-47
2022/04/01 13:09:07;;;;;;;4.40;3.63;;;9.40;69.80;;;;;;5030317;28;20243;-46
2022/04/01 13:11:37;;;;;;;4.72;4.20;;;9.40;69.50;;;;;;5026827;28;20764;-47
2022/04/01 13:14:07;;;;;;;3.22;2.92;;;9.50;71.00;;;;;;5027854;28;20216;-49
2022/04/01 13:16:37;;;;;;;5.28;3.80;;;9.40;70.20;;;;;;5022328;28;20302;-46
2022/04/01 13:19:27;;;;;;;3.78;3.25;;;9.40;70.20;;;;;;5029649;28;20232;-47
2022/04/01 13:21:57;;;;;;;3.35;3.00;;;9.40;70.50;;;;;;5039417;28;20219;-47
2022/04/01 13:24:34;;;;;;;3.38;3.08;;;9.50;70.80;;;;;;5029871;28;20246;-47
2022/04/01 13:27:02;;;;;;;4.65;2.83;;;9.50;70.90;;;;;;5029051;28;20234;-45
2022/04/01 13:29:30;;;;;;;4.22;3.30;;;9.40;70.40;;;;;;5029050;28;20220;-46
2022/04/01 13:31:58;;;;;;;5.65;3.25;;;9.40;70.40;;;;;;5028796;28;20222;-47
2022/04/01 13:34:30;;;;;;;3.17;2.88;;;9.40;70.40;;;;;;5028575;28;20206;-47
2022/04/01 13:36:58;;;;;;;3.03;2.78;;;9.50;70.80;;;;;;5030339;28;20286;-48